createdAt,value
2023-03-12T00:00:13.268Z,7.98
2023-03-12T00:02:58.984Z,7.95
2023-03-12T00:05:45.507Z,7.91
2023-03-12T00:08:30.984Z,7.95
2023-03-12T00:11:19.292Z,7.94
2023-03-12T00:14:04.724Z,7.92
2023-03-12T00:16:50.124Z,7.89
2023-03-12T00:19:35.589Z,7.85
2023-03-12T00:22:23.120Z,7.84
2023-03-12T00:25:13.984Z,7.86
2023-03-12T00:27:59.582Z,7.93
2023-03-12T00:30:45.025Z,7.96
2023-03-12T00:33:30.721Z,8.02
2023-03-12T00:36:18.066Z,8.02
2023-03-12T00:39:03.337Z,7.99
2023-03-12T00:41:48.694Z,7.99
2023-03-12T00:44:34.020Z,8.00
2023-03-12T00:47:19.482Z,8.00
2023-03-12T00:50:05.414Z,8.01
2023-03-12T00:52:51.304Z,7.98
2023-03-12T00:55:36.826Z,7.97
2023-03-12T00:58:22.336Z,8.01
2023-03-12T01:01:07.591Z,8.00
2023-03-12T01:03:53.096Z,8.02
2023-03-12T01:06:38.707Z,7.97
2023-03-12T01:09:24.415Z,7.89
2023-03-12T01:12:10.260Z,7.79
2023-03-12T01:14:55.636Z,7.78
2023-03-12T01:17:41.239Z,7.74
2023-03-12T01:20:26.752Z,7.72
2023-03-12T01:23:12.403Z,7.68
2023-03-12T01:25:57.755Z,7.69
2023-03-12T01:28:43.903Z,7.70
2023-03-12T01:31:29.413Z,7.70
2023-03-12T01:34:14.749Z,7.69
2023-03-12T01:37:00.334Z,7.64
2023-03-12T01:39:45.550Z,7.64
2023-03-12T01:42:30.882Z,7.71
2023-03-12T01:45:53.366Z,7.76
2023-03-12T01:49:01.788Z,7.80
2023-03-12T01:51:58.962Z,7.80
2023-03-12T01:55:03.244Z,7.79
2023-03-12T01:57:55.303Z,7.81
2023-03-12T02:00:41.136Z,7.80
2023-03-12T02:03:27.705Z,7.81
2023-03-12T02:06:15.738Z,7.82
2023-03-12T02:09:03.042Z,7.81
2023-03-12T02:11:49.602Z,7.81
2023-03-12T02:14:36.328Z,7.80
2023-03-12T02:17:21.740Z,7.80
2023-03-12T02:20:16.285Z,7.79
2023-03-12T02:23:17.113Z,7.73
2023-03-12T02:26:05.616Z,7.71
2023-03-12T02:28:51.875Z,7.72
2023-03-12T02:31:47.975Z,7.72
2023-03-12T02:34:33.391Z,7.72
2023-03-12T02:37:19.739Z,7.70
2023-03-12T02:40:13.928Z,7.72
2023-03-12T02:43:00.758Z,7.73
2023-03-12T02:45:46.518Z,7.75
2023-03-12T02:48:34.161Z,7.74
2023-03-12T02:51:19.687Z,7.70
2023-03-12T02:54:05.540Z,7.70
2023-03-12T02:56:52.099Z,7.68
2023-03-12T02:59:37.628Z,7.69
2023-03-12T03:02:24.735Z,7.61
2023-03-12T03:05:12.354Z,7.57
2023-03-12T03:07:57.670Z,7.54
2023-03-12T03:10:43.052Z,7.56
2023-03-12T03:13:30.028Z,7.57
2023-03-12T03:16:15.766Z,7.55
2023-03-12T03:19:01.136Z,7.46
2023-03-12T03:21:46.687Z,7.41
2023-03-12T03:24:32.317Z,7.33
2023-03-12T03:27:17.493Z,7.27
2023-03-12T03:30:04.073Z,7.24
2023-03-12T03:32:52.391Z,7.19
2023-03-12T03:35:38.234Z,7.13
2023-03-12T03:38:23.745Z,7.17
2023-03-12T03:41:09.484Z,7.16
2023-03-12T03:44:00.985Z,7.17
2023-03-12T03:46:49.994Z,7.12
2023-03-12T03:49:35.505Z,7.07
2023-03-12T03:52:21.508Z,7.04
2023-03-12T03:55:07.368Z,7.00
2023-03-12T03:57:52.905Z,6.97
2023-03-12T04:00:39.592Z,6.94
2023-03-12T04:03:25.197Z,6.91
2023-03-12T04:06:11.599Z,6.92
2023-03-12T04:08:59.199Z,6.92
2023-03-12T04:11:46.586Z,6.86
2023-03-12T04:14:32.940Z,6.87
2023-03-12T04:17:19.524Z,6.89
2023-03-12T04:20:09.607Z,6.92
2023-03-12T04:22:55.716Z,6.97
2023-03-12T04:25:41.562Z,7.00
2023-03-12T04:28:26.857Z,7.05
2023-03-12T04:31:12.929Z,7.10
2023-03-12T04:34:03.121Z,7.13
2023-03-12T04:36:49.009Z,7.15
2023-03-12T04:39:34.381Z,7.17
2023-03-12T04:42:20.313Z,7.17
2023-03-12T04:45:07.433Z,7.15
2023-03-12T04:47:56.527Z,7.19
2023-03-12T04:50:42.671Z,7.25
2023-03-12T04:53:28.195Z,7.27
2023-03-12T04:56:14.519Z,7.23
2023-03-12T04:59:01.280Z,7.17
2023-03-12T05:01:48.210Z,7.15
2023-03-12T05:04:39.060Z,7.06
2023-03-12T05:07:24.810Z,6.99
2023-03-12T05:10:10.743Z,6.92
2023-03-12T05:12:56.334Z,6.81
2023-03-12T05:15:42.314Z,6.73
2023-03-12T05:18:27.671Z,6.76
2023-03-12T05:21:19.795Z,6.74
2023-03-12T05:24:07.080Z,6.83
2023-03-12T05:26:52.739Z,6.84
2023-03-12T05:29:41.585Z,6.93
2023-03-12T05:32:27.437Z,7.02
2023-03-12T05:35:13.149Z,7.08
2023-03-12T05:37:59.644Z,7.11
2023-03-12T05:40:53.401Z,7.14
2023-03-12T05:43:39.361Z,7.16
2023-03-12T05:46:26.724Z,7.14
2023-03-12T05:49:12.025Z,7.11
2023-03-12T05:51:57.540Z,7.14
2023-03-12T05:54:43.315Z,7.09
2023-03-12T05:57:30.095Z,7.02
2023-03-12T06:00:17.048Z,6.94
2023-03-12T06:03:11.968Z,6.90
2023-03-12T06:05:57.628Z,6.90
2023-03-12T06:08:43.236Z,6.87
2023-03-12T06:11:32.283Z,6.83
2023-03-12T06:14:18.100Z,6.75
2023-03-12T06:17:03.419Z,6.72
2023-03-12T06:19:52.839Z,6.68
2023-03-12T06:22:39.325Z,6.50
2023-03-12T06:25:24.491Z,6.45
2023-03-12T06:28:09.880Z,6.42
2023-03-12T06:30:56.176Z,6.41
2023-03-12T06:33:41.443Z,6.42
2023-03-12T06:36:26.876Z,6.37
2023-03-12T06:39:12.302Z,6.41
2023-03-12T06:41:57.702Z,6.40
2023-03-12T06:44:42.948Z,6.48
2023-03-12T06:47:28.186Z,6.54
2023-03-12T06:50:13.570Z,6.51
2023-03-12T06:52:58.868Z,6.51
2023-03-12T06:55:45.107Z,6.51
2023-03-12T06:58:30.814Z,6.51
2023-03-12T07:01:16.246Z,6.54
2023-03-12T07:04:01.692Z,6.54
2023-03-12T07:06:50.602Z,6.54
2023-03-12T07:09:36.180Z,6.51
2023-03-12T07:12:21.544Z,6.52
2023-03-12T07:15:07.362Z,6.56
2023-03-12T07:17:52.881Z,6.58
2023-03-12T07:20:40.730Z,6.60
2023-03-12T07:23:26.000Z,6.65
2023-03-12T07:26:12.792Z,6.81
2023-03-12T07:28:58.347Z,6.87
2023-03-12T07:31:43.631Z,6.89
2023-03-12T07:34:29.119Z,6.94
2023-03-12T07:37:14.708Z,7.02
2023-03-12T07:40:00.032Z,7.09
2023-03-12T07:42:45.438Z,7.14
2023-03-12T07:45:31.395Z,7.20
2023-03-12T07:48:19.975Z,7.24
2023-03-12T07:51:06.297Z,7.29
2023-03-12T07:53:51.949Z,7.32
2023-03-12T07:56:37.715Z,7.39
2023-03-12T07:59:24.051Z,7.47
2023-03-12T08:02:11.039Z,7.54
2023-03-12T08:04:56.169Z,7.61
2023-03-12T08:07:41.482Z,7.68
2023-03-12T08:10:27.082Z,7.74
2023-03-12T08:13:13.008Z,7.80
2023-03-12T08:15:58.372Z,7.83
2023-03-12T08:18:43.951Z,7.85
2023-03-12T08:21:29.187Z,7.86
2023-03-12T08:24:15.713Z,7.91
2023-03-12T08:27:01.322Z,7.94
2023-03-12T08:29:47.071Z,8.00
2023-03-12T08:32:32.679Z,8.07
2023-03-12T08:35:18.162Z,8.17
2023-03-12T08:38:03.516Z,8.32
2023-03-12T08:40:59.357Z,8.51
2023-03-12T08:43:44.629Z,8.63
2023-03-12T08:46:30.037Z,8.71
2023-03-12T08:49:15.425Z,8.75
2023-03-12T08:52:00.804Z,8.78
2023-03-12T08:54:46.362Z,8.83
2023-03-12T08:57:32.598Z,8.86
2023-03-12T09:00:18.335Z,8.87
2023-03-12T09:03:03.816Z,8.90
2023-03-12T09:05:49.969Z,8.95
2023-03-12T09:08:35.390Z,9.06
2023-03-12T09:11:21.271Z,9.18
2023-03-12T09:17:12.227Z,9.48
2023-03-12T09:19:57.948Z,9.60
2023-03-12T09:22:43.637Z,9.70
2023-03-12T09:25:29.165Z,9.79
2023-03-12T09:28:16.579Z,9.93
2023-03-12T09:31:03.431Z,9.98
2023-03-12T09:33:48.797Z,10.06
2023-03-12T09:36:34.295Z,10.12
2023-03-12T09:39:20.909Z,10.15
2023-03-12T09:42:12.310Z,10.17
2023-03-12T09:45:02.168Z,10.22
2023-03-12T09:47:51.810Z,10.21
2023-03-12T09:50:43.570Z,10.21
2023-03-12T09:53:33.517Z,10.30
2023-03-12T09:56:21.617Z,10.41
2023-03-12T09:59:12.698Z,10.52
2023-03-12T10:02:03.916Z,10.62
2023-03-12T10:05:06.508Z,10.71
2023-03-12T10:08:17.436Z,10.79
2023-03-12T10:11:42.973Z,10.86
2023-03-12T10:14:42.718Z,10.97
2023-03-12T10:17:53.024Z,11.08
2023-03-12T10:20:58.646Z,11.24
2023-03-12T10:24:29.100Z,11.49
2023-03-12T10:27:17.572Z,11.60
2023-03-12T10:30:13.246Z,11.72
2023-03-12T10:33:06.902Z,11.85
2023-03-12T10:35:53.657Z,12.00
2023-03-12T10:38:39.198Z,12.11
2023-03-12T10:41:29.240Z,12.20
2023-03-12T10:44:21.402Z,12.19
2023-03-12T10:47:33.987Z,12.16
2023-03-12T10:50:22.279Z,12.07
2023-03-12T10:53:26.784Z,12.02
2023-03-12T10:56:18.016Z,11.97
2023-03-12T10:59:21.230Z,11.97
2023-03-12T11:02:22.046Z,11.82
2023-03-12T11:05:35.438Z,11.75
2023-03-12T11:08:29.564Z,11.71
2023-03-12T11:11:31.631Z,11.75
2023-03-12T11:14:29.448Z,11.84
2023-03-12T11:17:24.610Z,11.95
2023-03-12T11:20:26.478Z,12.09
2023-03-12T11:23:17.541Z,12.22
2023-03-12T11:26:11.792Z,12.42
2023-03-12T11:29:06.304Z,12.65
2023-03-12T11:32:10.810Z,12.81
2023-03-12T11:34:56.258Z,12.83
2023-03-12T11:37:53.808Z,12.77
2023-03-12T11:41:06.905Z,12.75
2023-03-12T11:44:04.171Z,12.74
2023-03-12T11:47:26.996Z,12.78
2023-03-12T11:50:28.200Z,12.66
2023-03-12T11:53:54.300Z,12.64
2023-03-12T11:56:42.023Z,12.61
2023-03-12T11:59:46.627Z,12.61
2023-03-12T12:03:04.830Z,12.58
2023-03-12T12:05:59.290Z,12.48
2023-03-12T12:09:18.493Z,12.40
2023-03-12T12:12:53.565Z,12.32
2023-03-12T12:15:45.068Z,12.24
2023-03-12T12:18:43.373Z,12.24
2023-03-12T12:21:44.634Z,12.34
2023-03-12T12:25:07.060Z,12.49
2023-03-12T12:27:55.506Z,12.67
2023-03-12T12:31:08.550Z,12.81
2023-03-12T12:34:23.884Z,12.94
2023-03-12T12:37:22.624Z,12.98
2023-03-12T12:40:20.212Z,12.83
2023-03-12T12:43:36.197Z,12.77
2023-03-12T12:46:36.025Z,12.82
2023-03-12T12:49:29.798Z,12.83
2023-03-12T12:52:21.975Z,12.79
2023-03-12T12:55:22.696Z,12.69
2023-03-12T12:58:22.160Z,12.64
2023-03-12T13:01:09.446Z,12.80
2023-03-12T13:04:02.178Z,12.76
2023-03-12T13:07:20.072Z,12.82
2023-03-12T13:10:07.458Z,12.93
2023-03-12T13:12:56.310Z,12.94
2023-03-12T13:15:43.879Z,13.08
2023-03-12T13:18:30.379Z,13.26
2023-03-12T13:21:29.464Z,13.48
2023-03-12T13:24:36.328Z,13.54
2023-03-12T13:27:42.777Z,13.59
2023-03-12T13:30:48.123Z,13.64
2023-03-12T13:33:45.014Z,13.70
2023-03-12T13:36:30.768Z,13.64
2023-03-12T13:39:16.031Z,13.41
2023-03-12T13:42:22.326Z,13.22
2023-03-12T13:45:28.941Z,13.01
2023-03-12T13:48:20.417Z,12.79
2023-03-12T13:51:18.460Z,12.77
2023-03-12T13:54:04.821Z,12.72
2023-03-12T13:57:03.695Z,12.60
2023-03-12T13:59:51.256Z,12.50
2023-03-12T14:02:43.110Z,12.41
2023-03-12T14:05:29.314Z,12.40
2023-03-12T14:08:42.582Z,12.36
2023-03-12T14:11:39.434Z,12.30
2023-03-12T14:14:38.551Z,12.24
2023-03-12T14:17:27.434Z,12.15
2023-03-12T14:20:19.161Z,12.13
2023-03-12T14:23:07.880Z,12.15
2023-03-12T14:26:00.417Z,12.16
2023-03-12T14:29:08.065Z,12.14
2023-03-12T14:31:57.413Z,12.12
2023-03-12T14:34:48.037Z,12.15
2023-03-12T14:37:40.414Z,12.16
2023-03-12T14:40:50.439Z,12.17
2023-03-12T14:43:36.117Z,12.20
2023-03-12T14:46:23.693Z,12.19
2023-03-12T14:49:19.662Z,12.24
2023-03-12T14:52:04.956Z,12.28
2023-03-12T14:55:24.738Z,12.25
2023-03-12T14:58:17.778Z,12.21
2023-03-12T15:01:06.839Z,12.13
2023-03-12T15:04:05.198Z,12.09
2023-03-12T15:06:59.241Z,12.04
2023-03-12T15:09:47.656Z,12.02
2023-03-12T15:12:38.294Z,12.00
2023-03-12T15:15:52.302Z,11.98
2023-03-12T15:18:38.146Z,11.97
2023-03-12T15:21:24.683Z,11.96
2023-03-12T15:24:13.479Z,11.91
2023-03-12T15:27:31.418Z,11.92
2023-03-12T15:30:27.225Z,11.91
2023-03-12T15:33:24.691Z,11.88
2023-03-12T15:36:19.586Z,11.88
2023-03-12T15:39:13.616Z,11.84
2023-03-12T15:42:08.886Z,11.83
2023-03-12T15:45:03.309Z,11.87
2023-03-12T15:47:50.617Z,11.86
2023-03-12T15:50:41.929Z,11.77
2023-03-12T15:53:33.748Z,11.73
2023-03-12T15:56:22.868Z,11.65
2023-03-12T15:59:17.378Z,11.63
2023-03-12T16:02:02.981Z,11.60
2023-03-12T16:04:48.418Z,11.56
2023-03-12T16:07:33.830Z,11.55
2023-03-12T16:10:21.241Z,11.51
2023-03-12T16:13:06.574Z,11.47
2023-03-12T16:15:52.171Z,11.47
2023-03-12T16:18:37.767Z,11.46
2023-03-12T16:21:23.219Z,11.48
2023-03-12T16:24:09.346Z,11.51
2023-03-12T16:26:58.139Z,11.53
2023-03-12T16:29:43.818Z,11.57
2023-03-12T16:32:29.731Z,11.60
2023-03-12T16:35:18.720Z,11.62
2023-03-12T16:38:04.351Z,11.65
2023-03-12T16:40:52.134Z,11.67
2023-03-12T16:43:37.680Z,11.71
2023-03-12T16:46:23.522Z,11.72
2023-03-12T16:49:15.647Z,11.77
2023-03-12T16:52:02.440Z,11.84
2023-03-12T16:54:52.286Z,11.89
2023-03-12T16:57:41.363Z,11.90
2023-03-12T17:00:32.834Z,11.92
2023-03-12T17:03:30.193Z,11.92
2023-03-12T17:06:19.122Z,11.94
2023-03-12T17:09:04.552Z,11.96
2023-03-12T17:11:51.735Z,11.98
2023-03-12T17:14:37.571Z,12.02
2023-03-12T17:17:23.388Z,12.00
2023-03-12T17:20:13.603Z,12.00
2023-03-12T17:22:59.446Z,11.99
2023-03-12T17:25:45.546Z,11.96
2023-03-12T17:28:31.311Z,11.95
2023-03-12T17:31:16.696Z,11.92
2023-03-12T17:34:04.027Z,11.92
2023-03-12T17:36:49.493Z,11.93
2023-03-12T17:39:35.720Z,11.92
2023-03-12T17:42:21.363Z,11.90
2023-03-12T17:45:08.297Z,11.93
2023-03-12T17:47:53.538Z,11.89
2023-03-12T17:50:39.114Z,11.85
2023-03-12T17:53:25.060Z,11.76
2023-03-12T17:56:12.685Z,11.60
2023-03-12T17:58:58.324Z,11.22
2023-03-12T18:01:43.401Z,10.96
2023-03-12T18:04:28.884Z,10.78
2023-03-12T18:07:14.524Z,10.59
2023-03-12T18:09:59.986Z,10.49
2023-03-12T18:12:45.549Z,10.40
2023-03-12T18:15:30.776Z,10.27
2023-03-12T18:18:16.228Z,10.19
2023-03-12T18:21:01.664Z,10.10
2023-03-12T18:23:46.965Z,10.02
2023-03-12T18:26:32.408Z,9.99
2023-03-12T18:29:17.814Z,9.96
2023-03-12T18:32:04.108Z,9.93
2023-03-12T18:34:49.656Z,9.83
2023-03-12T18:37:34.953Z,9.80
2023-03-12T18:40:20.170Z,9.80
2023-03-12T18:43:05.508Z,9.79
2023-03-12T18:45:50.844Z,9.79
2023-03-12T18:48:36.192Z,9.79
2023-03-12T18:51:21.636Z,9.80
2023-03-12T18:54:07.380Z,9.79
2023-03-12T18:56:52.586Z,9.79
2023-03-12T18:59:38.633Z,9.77
2023-03-12T19:02:24.200Z,9.76
2023-03-12T19:05:11.143Z,9.77
2023-03-12T19:07:56.861Z,9.76
2023-03-12T19:10:43.450Z,9.76
2023-03-12T19:13:29.133Z,9.74
2023-03-12T19:16:17.829Z,9.72
2023-03-12T19:19:03.191Z,9.68
2023-03-12T19:21:48.937Z,9.66
2023-03-12T19:24:34.537Z,9.62
2023-03-12T19:27:19.800Z,9.60
2023-03-12T19:30:05.826Z,9.57
2023-03-12T19:32:51.189Z,9.57
2023-03-12T19:35:41.177Z,9.56
2023-03-12T19:38:26.770Z,9.53
2023-03-12T19:41:12.362Z,9.52
2023-03-12T19:43:57.913Z,9.49
2023-03-12T19:46:43.362Z,9.45
2023-03-12T19:49:29.917Z,9.46
2023-03-12T19:52:15.563Z,9.45
2023-03-12T19:55:05.263Z,9.44
2023-03-12T19:57:50.894Z,9.41
2023-03-12T20:00:36.658Z,9.40
2023-03-12T20:03:23.195Z,9.38
2023-03-12T20:06:10.547Z,9.37
2023-03-12T20:08:56.231Z,9.36
2023-03-12T20:11:41.655Z,9.38
2023-03-12T20:14:27.610Z,9.41
2023-03-12T20:17:13.354Z,9.38
2023-03-12T20:19:59.142Z,9.38
2023-03-12T20:22:44.516Z,9.37
2023-03-12T20:25:29.963Z,9.33
2023-03-12T20:28:17.024Z,9.31
2023-03-12T20:31:14.273Z,9.30
2023-03-12T20:33:59.894Z,9.26
2023-03-12T20:36:45.575Z,9.23
2023-03-12T20:39:30.874Z,9.21
2023-03-12T20:42:16.312Z,9.20
2023-03-12T20:45:01.734Z,9.23
2023-03-12T20:47:47.201Z,9.34
2023-03-12T20:50:34.161Z,9.65
2023-03-12T20:53:19.503Z,9.84
2023-03-12T20:56:07.015Z,9.97
2023-03-12T20:58:53.458Z,10.04
2023-03-12T21:01:39.347Z,10.13
2023-03-12T21:04:24.796Z,10.22
2023-03-12T21:07:10.169Z,10.26
2023-03-12T21:09:55.723Z,10.30
2023-03-12T21:12:42.130Z,10.36
2023-03-12T21:15:27.434Z,10.43
2023-03-12T21:18:13.005Z,10.48
2023-03-12T21:21:03.484Z,10.52
2023-03-12T21:23:49.251Z,10.57
2023-03-12T21:26:34.549Z,10.58
2023-03-12T21:29:19.893Z,10.66
2023-03-12T21:32:05.368Z,10.69
2023-03-12T21:34:51.091Z,10.75
2023-03-12T21:37:37.159Z,10.83
2023-03-12T21:40:23.637Z,10.87
2023-03-12T21:43:09.192Z,10.91
2023-03-12T21:45:54.511Z,10.95
2023-03-12T21:48:40.351Z,10.95
2023-03-12T21:51:26.334Z,10.93
2023-03-12T21:54:12.143Z,10.98
2023-03-12T21:56:57.878Z,10.98
2023-03-12T21:59:43.090Z,10.98
2023-03-12T22:02:29.681Z,11.02
2023-03-12T22:05:15.354Z,11.06
2023-03-12T22:08:00.932Z,11.09
2023-03-12T22:10:46.238Z,11.10
2023-03-12T22:13:31.771Z,11.12
2023-03-12T22:16:17.697Z,11.16
2023-03-12T22:19:03.468Z,11.15
2023-03-12T22:21:48.812Z,11.11
2023-03-12T22:24:34.183Z,11.09
2023-03-12T22:27:19.430Z,11.06
2023-03-12T22:30:05.467Z,11.05
2023-03-12T22:32:51.337Z,11.05
2023-03-12T22:35:47.143Z,11.16
2023-03-12T22:38:33.130Z,11.26
2023-03-12T22:41:21.313Z,11.32
2023-03-12T22:44:07.733Z,11.32
2023-03-12T22:46:53.162Z,11.32
2023-03-12T22:49:38.448Z,11.28
2023-03-12T22:52:24.017Z,11.25
2023-03-12T22:55:09.766Z,11.19
2023-03-12T22:57:55.435Z,11.15
2023-03-12T23:00:40.948Z,11.16
2023-03-12T23:03:27.194Z,11.24
2023-03-12T23:06:21.887Z,11.34
2023-03-12T23:09:07.345Z,11.36
2023-03-12T23:11:52.633Z,11.31
2023-03-12T23:14:37.911Z,11.28
2023-03-12T23:17:23.206Z,11.32
2023-03-12T23:20:09.935Z,11.39
2023-03-12T23:22:55.491Z,11.38
2023-03-12T23:25:40.871Z,11.38
2023-03-12T23:28:28.265Z,11.37
2023-03-12T23:31:15.770Z,11.36
2023-03-12T23:34:01.298Z,11.37
2023-03-12T23:36:46.656Z,11.36
2023-03-12T23:39:35.353Z,11.33
2023-03-12T23:42:27.176Z,11.31
2023-03-12T23:45:12.770Z,11.32
2023-03-12T23:47:58.128Z,11.27
2023-03-12T23:50:43.630Z,11.23
2023-03-12T23:53:28.935Z,11.21
2023-03-12T23:56:20.598Z,11.23
2023-03-12T23:59:08.337Z,11.23
